sensor_id;sensor_type;location;lat;lon;timestamp;temperature;humidity
4453;DHT22;2239;48.152;11.584;2022-09-25T00:01:23;12.60;99.90
4453;DHT22;2239;48.152;11.584;2022-09-25T00:03:49;12.60;99.90
4453;DHT22;2239;48.152;11.584;2022-09-25T00:06:20;12.50;99.90
4453;DHT22;2239;48.152;11.584;2022-09-25T00:08:45;12.60;99.90
4453;DHT22;2239;48.152;11.584;2022-09-25T00:11:16;12.50;99.90
4453;DHT22;2239;48.152;11.584;2022-09-25T00:13:43;12.60;99.90
4453;DHT22;2239;48.152;11.584;2022-09-25T00:16:13;12.60;99.90
4453;DHT22;2239;48.152;11.584;2022-09-25T00:18:39;12.60;99.90
4453;DHT22;2239;48.152;11.584;2022-09-25T00:21:28;12.50;99.90
4453;DHT22;2239;48.152;11.584;2022-09-25T00:23:57;12.50;99.90
4453;DHT22;2239;48.152;11.584;2022-09-25T00:26:26;12.50;99.90
4453;DHT22;2239;48.152;11.584;2022-09-25T00:28:53;12.50;99.90
4453;DHT22;2239;48.152;11.584;2022-09-25T00:31:20;12.60;99.90
4453;DHT22;2239;48.152;11.584;2022-09-25T00:33:55;12.60;99.90
4453;DHT22;2239;48.152;11.584;2022-09-25T00:36:21;12.70;99.90
4453;DHT22;2239;48.152;11.584;2022-09-25T00:38:47;12.70;99.90
4453;DHT22;2239;48.152;11.584;2022-09-25T00:41:15;12.70;99.90
4453;DHT22;2239;48.152;11.584;2022-09-25T00:43:50;12.70;99.90
4453;DHT22;2239;48.152;11.584;2022-09-25T00:48:52;12.70;99.90
4453;DHT22;2239;48.152;11.584;2022-09-25T00:51:21;12.60;99.90
4453;DHT22;2239;48.152;11.584;2022-09-25T00:53:58;12.60;99.90
4453;DHT22;2239;48.152;11.584;2022-09-25T00:56:28;12.60;99.90
4453;DHT22;2239;48.152;11.584;2022-09-25T00:58:54;12.50;99.90
4453;DHT22;2239;48.152;11.584;2022-09-25T01:01:20;12.50;99.90
4453;DHT22;2239;48.152;11.584;2022-09-25T01:03:47;12.50;99.90
4453;DHT22;2239;48.152;11.584;2022-09-25T01:06:15;12.40;99.90
4453;DHT22;2239;48.152;11.584;2022-09-25T01:08:42;12.40;99.90
4453;DHT22;2239;48.152;11.584;2022-09-25T01:11:10;12.40;99.90
4453;DHT22;2239;48.152;11.584;2022-09-25T01:13:36;12.50;99.90
4453;DHT22;2239;48.152;11.584;2022-09-25T01:25:33;12.30;99.90
4453;DHT22;2239;48.152;11.584;2022-09-25T01:31:26;12.20;99.90
4453;DHT22;2239;48.152;11.584;2022-09-25T01:33:59;12.20;99.90
4453;DHT22;2239;48.152;11.584;2022-09-25T01:36:35;12.20;99.90
4453;DHT22;2239;48.152;11.584;2022-09-25T01:39:12;12.10;99.90
4453;DHT22;2239;48.152;11.584;2022-09-25T01:41:46;12.10;99.90
4453;DHT22;2239;48.152;11.584;2022-09-25T01:44:29;12.10;99.90
4453;DHT22;2239;48.152;11.584;2022-09-25T01:47:01;12.10;99.90
4453;DHT22;2239;48.152;11.584;2022-09-25T01:49:36;12.00;99.90
4453;DHT22;2239;48.152;11.584;2022-09-25T01:52:16;11.90;99.90
4453;DHT22;2239;48.152;11.584;2022-09-25T01:54:48;11.80;99.90
4453;DHT22;2239;48.152;11.584;2022-09-25T02:00:32;11.80;99.90
4453;DHT22;2239;48.152;11.584;2022-09-25T02:02:42;11.70;99.90
4453;DHT22;2239;48.152;11.584;2022-09-25T02:05:33;11.80;99.90
4453;DHT22;2239;48.152;11.584;2022-09-25T02:08:04;11.70;99.90
4453;DHT22;2239;48.152;11.584;2022-09-25T02:10:42;11.70;99.90
4453;DHT22;2239;48.152;11.584;2022-09-25T02:13:15;11.60;99.90
4453;DHT22;2239;48.152;11.584;2022-09-25T02:16:01;11.60;99.90
4453;DHT22;2239;48.152;11.584;2022-09-25T02:18:29;11.60;99.90
4453;DHT22;2239;48.152;11.584;2022-09-25T02:21:31;11.50;99.90
4453;DHT22;2239;48.152;11.584;2022-09-25T02:24:13;11.50;99.90
4453;DHT22;2239;48.152;11.584;2022-09-25T02:26:41;11.50;99.90
4453;DHT22;2239;48.152;11.584;2022-09-25T02:29:07;11.50;99.90
4453;DHT22;2239;48.152;11.584;2022-09-25T02:31:42;11.40;99.90
4453;DHT22;2239;48.152;11.584;2022-09-25T02:34:10;11.40;99.90
4453;DHT22;2239;48.152;11.584;2022-09-25T02:36:36;11.40;99.90
4453;DHT22;2239;48.152;11.584;2022-09-25T02:39:03;11.40;99.90
4453;DHT22;2239;48.152;11.584;2022-09-25T02:49:47;11.40;99.90
4453;DHT22;2239;48.152;11.584;2022-09-25T02:55:14;11.40;99.90
4453;DHT22;2239;48.152;11.584;2022-09-25T03:00:12;11.40;99.90
4453;DHT22;2239;48.152;11.584;2022-09-25T03:02:39;11.40;99.90
4453;DHT22;2239;48.152;11.584;2022-09-25T03:05:06;11.40;99.90
4453;DHT22;2239;48.152;11.584;2022-09-25T03:07:34;11.40;99.90
4453;DHT22;2239;48.152;11.584;2022-09-25T03:10:21;11.40;99.90
4453;DHT22;2239;48.152;11.584;2022-09-25T03:12:47;11.30;99.90
4453;DHT22;2239;48.152;11.584;2022-09-25T03:15:13;11.20;99.90
4453;DHT22;2239;48.152;11.584;2022-09-25T03:17:38;11.30;99.90
4453;DHT22;2239;48.152;11.584;2022-09-25T03:20:06;11.30;99.90
4453;DHT22;2239;48.152;11.584;2022-09-25T03:22:35;11.20;99.90
4453;DHT22;2239;48.152;11.584;2022-09-25T03:25:02;11.20;99.90
4453;DHT22;2239;48.152;11.584;2022-09-25T03:27:28;11.20;99.90
4453;DHT22;2239;48.152;11.584;2022-09-25T03:29:54;11.20;99.90
4453;DHT22;2239;48.152;11.584;2022-09-25T03:32:21;11.10;99.90
4453;DHT22;2239;48.152;11.584;2022-09-25T03:34:46;11.10;99.90
4453;DHT22;2239;48.152;11.584;2022-09-25T03:37:12;11.00;99.90
4453;DHT22;2239;48.152;11.584;2022-09-25T03:39:38;10.90;99.90
4453;DHT22;2239;48.152;11.584;2022-09-25T03:42:04;10.90;99.90
4453;DHT22;2239;48.152;11.584;2022-09-25T03:44:30;10.90;99.90
4453;DHT22;2239;48.152;11.584;2022-09-25T03:46:55;10.80;99.90
4453;DHT22;2239;48.152;11.584;2022-09-25T03:49:21;10.80;99.90
4453;DHT22;2239;48.152;11.584;2022-09-25T03:51:47;10.70;99.90
4453;DHT22;2239;48.152;11.584;2022-09-25T03:54:13;10.80;99.90
4453;DHT22;2239;48.152;11.584;2022-09-25T03:56:39;10.80;99.90
4453;DHT22;2239;48.152;11.584;2022-09-25T03:59:04;10.80;99.90
4453;DHT22;2239;48.152;11.584;2022-09-25T04:01:30;10.90;99.90
4453;DHT22;2239;48.152;11.584;2022-09-25T04:03:56;10.90;99.90
4453;DHT22;2239;48.152;11.584;2022-09-25T04:06:24;10.90;99.90
4453;DHT22;2239;48.152;11.584;2022-09-25T04:08:51;10.90;99.90
4453;DHT22;2239;48.152;11.584;2022-09-25T04:11:20;10.90;99.90
4453;DHT22;2239;48.152;11.584;2022-09-25T04:13:46;10.90;99.90
4453;DHT22;2239;48.152;11.584;2022-09-25T04:16:14;10.80;99.90
4453;DHT22;2239;48.152;11.584;2022-09-25T04:18:40;10.80;99.90
4453;DHT22;2239;48.152;11.584;2022-09-25T04:21:08;10.70;99.90
4453;DHT22;2239;48.152;11.584;2022-09-25T04:23:36;10.70;99.90
4453;DHT22;2239;48.152;11.584;2022-09-25T04:26:04;10.70;99.90
4453;DHT22;2239;48.152;11.584;2022-09-25T04:28:29;10.70;99.90
4453;DHT22;2239;48.152;11.584;2022-09-25T04:30:57;10.80;99.90
4453;DHT22;2239;48.152;11.584;2022-09-25T04:33:22;10.80;99.90
4453;DHT22;2239;48.152;11.584;2022-09-25T04:36:07;10.80;99.90
4453;DHT22;2239;48.152;11.584;2022-09-25T04:38:33;10.80;99.90
4453;DHT22;2239;48.152;11.584;2022-09-25T04:40:59;10.80;99.90
4453;DHT22;2239;48.152;11.584;2022-09-25T04:43:29;10.90;99.90
4453;DHT22;2239;48.152;11.584;2022-09-25T04:46:06;10.90;99.90
4453;DHT22;2239;48.152;11.584;2022-09-25T04:48:34;10.90;99.90
4453;DHT22;2239;48.152;11.584;2022-09-25T04:51:00;10.90;99.90
4453;DHT22;2239;48.152;11.584;2022-09-25T04:53:27;10.90;99.90
4453;DHT22;2239;48.152;11.584;2022-09-25T04:56:02;10.90;99.90
4453;DHT22;2239;48.152;11.584;2022-09-25T04:58:28;10.90;99.90
4453;DHT22;2239;48.152;11.584;2022-09-25T05:00:54;11.00;99.90
4453;DHT22;2239;48.152;11.584;2022-09-25T05:03:19;11.00;99.90
4453;DHT22;2239;48.152;11.584;2022-09-25T05:05:45;11.00;99.90
4453;DHT22;2239;48.152;11.584;2022-09-25T05:08:11;11.00;99.90
4453;DHT22;2239;48.152;11.584;2022-09-25T05:10:37;11.00;99.90
4453;DHT22;2239;48.152;11.584;2022-09-25T05:13:05;11.00;99.90
4453;DHT22;2239;48.152;11.584;2022-09-25T05:15:32;11.00;99.90
4453;DHT22;2239;48.152;11.584;2022-09-25T05:18:06;11.00;99.90
4453;DHT22;2239;48.152;11.584;2022-09-25T05:20:34;11.00;99.90
4453;DHT22;2239;48.152;11.584;2022-09-25T05:23:00;11.00;99.90
4453;DHT22;2239;48.152;11.584;2022-09-25T05:25:29;11.00;99.90
4453;DHT22;2239;48.152;11.584;2022-09-25T05:27:57;11.00;99.90
4453;DHT22;2239;48.152;11.584;2022-09-25T05:30:24;10.90;99.90
4453;DHT22;2239;48.152;11.584;2022-09-25T05:32:51;10.90;99.90
4453;DHT22;2239;48.152;11.584;2022-09-25T05:35:19;10.90;99.90
4453;DHT22;2239;48.152;11.584;2022-09-25T05:37:45;10.90;99.90
4453;DHT22;2239;48.152;11.584;2022-09-25T05:40:11;10.80;99.90
4453;DHT22;2239;48.152;11.584;2022-09-25T05:42:37;10.80;99.90
4453;DHT22;2239;48.152;11.584;2022-09-25T05:45:03;10.80;99.90
4453;DHT22;2239;48.152;11.584;2022-09-25T05:47:28;10.90;99.90
4453;DHT22;2239;48.152;11.584;2022-09-25T05:49:54;10.80;99.90
4453;DHT22;2239;48.152;11.584;2022-09-25T05:52:19;10.80;99.90
4453;DHT22;2239;48.152;11.584;2022-09-25T05:54:45;10.80;99.90
4453;DHT22;2239;48.152;11.584;2022-09-25T05:57:11;10.80;99.90
4453;DHT22;2239;48.152;11.584;2022-09-25T05:59:37;10.80;99.90
4453;DHT22;2239;48.152;11.584;2022-09-25T06:02:02;10.90;99.90
4453;DHT22;2239;48.152;11.584;2022-09-25T06:04:28;11.00;99.90
4453;DHT22;2239;48.152;11.584;2022-09-25T06:06:54;11.00;99.90
4453;DHT22;2239;48.152;11.584;2022-09-25T06:09:19;11.10;99.90
4453;DHT22;2239;48.152;11.584;2022-09-25T06:11:45;11.20;99.90
4453;DHT22;2239;48.152;11.584;2022-09-25T06:14:12;11.20;99.90
4453;DHT22;2239;48.152;11.584;2022-09-25T06:16:38;11.30;99.90
4453;DHT22;2239;48.152;11.584;2022-09-25T06:19:04;11.30;99.90
4453;DHT22;2239;48.152;11.584;2022-09-25T06:21:30;11.30;99.90
4453;DHT22;2239;48.152;11.584;2022-09-25T06:23:55;11.30;99.90
4453;DHT22;2239;48.152;11.584;2022-09-25T06:26:21;11.40;99.90
4453;DHT22;2239;48.152;11.584;2022-09-25T06:28:47;11.40;99.90
4453;DHT22;2239;48.152;11.584;2022-09-25T06:31:13;11.50;99.90
4453;DHT22;2239;48.152;11.584;2022-09-25T06:33:38;11.50;99.90
4453;DHT22;2239;48.152;11.584;2022-09-25T06:36:05;11.60;99.90
4453;DHT22;2239;48.152;11.584;2022-09-25T06:38:30;11.60;99.90
4453;DHT22;2239;48.152;11.584;2022-09-25T06:40:58;11.60;99.90
4453;DHT22;2239;48.152;11.584;2022-09-25T06:43:24;11.60;99.90
4453;DHT22;2239;48.152;11.584;2022-09-25T06:45:50;11.60;99.90
4453;DHT22;2239;48.152;11.584;2022-09-25T06:48:16;11.60;99.90
4453;DHT22;2239;48.152;11.584;2022-09-25T06:50:54;11.70;99.90
4453;DHT22;2239;48.152;11.584;2022-09-25T06:53:22;11.70;99.90
4453;DHT22;2239;48.152;11.584;2022-09-25T06:55:48;11.70;99.90
4453;DHT22;2239;48.152;11.584;2022-09-25T06:58:20;11.70;99.90
4453;DHT22;2239;48.152;11.584;2022-09-25T07:00:50;11.70;99.90
4453;DHT22;2239;48.152;11.584;2022-09-25T07:03:17;11.80;99.90
4453;DHT22;2239;48.152;11.584;2022-09-25T07:06:03;11.90;99.90
4453;DHT22;2239;48.152;11.584;2022-09-25T07:08:29;12.00;99.90
4453;DHT22;2239;48.152;11.584;2022-09-25T07:10:57;12.10;99.90
4453;DHT22;2239;48.152;11.584;2022-09-25T07:13:27;12.20;99.90
4453;DHT22;2239;48.152;11.584;2022-09-25T07:15:56;12.30;99.90
4453;DHT22;2239;48.152;11.584;2022-09-25T07:18:23;12.40;99.90
4453;DHT22;2239;48.152;11.584;2022-09-25T07:20:50;12.50;99.90
4453;DHT22;2239;48.152;11.584;2022-09-25T07:23:18;12.60;99.90
4453;DHT22;2239;48.152;11.584;2022-09-25T07:25:45;12.60;99.90
4453;DHT22;2239;48.152;11.584;2022-09-25T07:28:11;12.70;99.90
4453;DHT22;2239;48.152;11.584;2022-09-25T07:30:41;12.80;99.90
4453;DHT22;2239;48.152;11.584;2022-09-25T07:33:07;12.90;99.90
4453;DHT22;2239;48.152;11.584;2022-09-25T07:35:34;13.10;99.90
4453;DHT22;2239;48.152;11.584;2022-09-25T07:38:00;13.20;99.90
4453;DHT22;2239;48.152;11.584;2022-09-25T07:40:26;13.40;99.90
4453;DHT22;2239;48.152;11.584;2022-09-25T07:43:00;13.50;99.90
4453;DHT22;2239;48.152;11.584;2022-09-25T07:45:26;13.70;99.90
4453;DHT22;2239;48.152;11.584;2022-09-25T07:47:59;13.80;99.90
4453;DHT22;2239;48.152;11.584;2022-09-25T07:50:28;13.90;99.90
4453;DHT22;2239;48.152;11.584;2022-09-25T07:52:54;14.00;99.90
4453;DHT22;2239;48.152;11.584;2022-09-25T07:55:20;14.10;99.90
4453;DHT22;2239;48.152;11.584;2022-09-25T07:57:47;14.20;99.90
4453;DHT22;2239;48.152;11.584;2022-09-25T08:00:14;14.20;99.90
4453;DHT22;2239;48.152;11.584;2022-09-25T08:02:39;14.30;99.90
4453;DHT22;2239;48.152;11.584;2022-09-25T08:05:06;14.40;99.90
4453;DHT22;2239;48.152;11.584;2022-09-25T08:07:31;14.50;99.90
4453;DHT22;2239;48.152;11.584;2022-09-25T08:09:57;14.40;99.90
4453;DHT22;2239;48.152;11.584;2022-09-25T08:12:23;14.50;99.90
4453;DHT22;2239;48.152;11.584;2022-09-25T08:14:50;14.50;99.90
4453;DHT22;2239;48.152;11.584;2022-09-25T08:17:16;14.60;99.90
4453;DHT22;2239;48.152;11.584;2022-09-25T08:19:43;14.60;99.90
4453;DHT22;2239;48.152;11.584;2022-09-25T08:22:08;14.60;99.90
4453;DHT22;2239;48.152;11.584;2022-09-25T08:24:34;14.50;99.90
4453;DHT22;2239;48.152;11.584;2022-09-25T08:27:00;14.50;99.90
4453;DHT22;2239;48.152;11.584;2022-09-25T08:29:25;14.60;99.90
4453;DHT22;2239;48.152;11.584;2022-09-25T08:31:51;14.50;99.90
4453;DHT22;2239;48.152;11.584;2022-09-25T08:34:17;14.60;99.90
4453;DHT22;2239;48.152;11.584;2022-09-25T08:36:43;14.70;99.90
4453;DHT22;2239;48.152;11.584;2022-09-25T08:39:08;14.90;99.90
4453;DHT22;2239;48.152;11.584;2022-09-25T08:41:49;15.00;99.90
4453;DHT22;2239;48.152;11.584;2022-09-25T08:44:40;15.00;99.90
4453;DHT22;2239;48.152;11.584;2022-09-25T08:47:18;15.10;99.90
4453;DHT22;2239;48.152;11.584;2022-09-25T08:50:19;15.00;99.90
4453;DHT22;2239;48.152;11.584;2022-09-25T08:52:50;14.80;99.90
4453;DHT22;2239;48.152;11.584;2022-09-25T08:55:25;14.70;99.90
4453;DHT22;2239;48.152;11.584;2022-09-25T08:58:33;14.60;99.90
4453;DHT22;2239;48.152;11.584;2022-09-25T09:01:05;14.50;99.90
4453;DHT22;2239;48.152;11.584;2022-09-25T09:03:32;14.40;99.90
4453;DHT22;2239;48.152;11.584;2022-09-25T09:06:04;14.40;99.90
4453;DHT22;2239;48.152;11.584;2022-09-25T09:08:32;14.40;99.90
4453;DHT22;2239;48.152;11.584;2022-09-25T09:11:17;14.40;99.90
4453;DHT22;2239;48.152;11.584;2022-09-25T09:14:05;14.40;99.90
4453;DHT22;2239;48.152;11.584;2022-09-25T09:16:44;14.40;99.90
4453;DHT22;2239;48.152;11.584;2022-09-25T09:19:11;14.40;99.90
4453;DHT22;2239;48.152;11.584;2022-09-25T09:29:34;14.60;99.90
4453;DHT22;2239;48.152;11.584;2022-09-25T09:53:07;15.10;99.90
4453;DHT22;2239;48.152;11.584;2022-09-25T09:55:47;15.20;99.90
4453;DHT22;2239;48.152;11.584;2022-09-25T09:59:19;15.30;99.90
4453;DHT22;2239;48.152;11.584;2022-09-25T10:01:22;15.70;99.90
4453;DHT22;2239;48.152;11.584;2022-09-25T10:03:54;16.20;99.90
4453;DHT22;2239;48.152;11.584;2022-09-25T10:06:24;16.40;99.90
4453;DHT22;2239;48.152;11.584;2022-09-25T10:08:52;16.60;99.90
4453;DHT22;2239;48.152;11.584;2022-09-25T10:11:18;16.70;99.90
4453;DHT22;2239;48.152;11.584;2022-09-25T10:13:46;16.70;99.90
4453;DHT22;2239;48.152;11.584;2022-09-25T10:16:22;16.60;99.90
4453;DHT22;2239;48.152;11.584;2022-09-25T10:21:20;16.60;99.90
4453;DHT22;2239;48.152;11.584;2022-09-25T10:23:54;16.90;99.90
4453;DHT22;2239;48.152;11.584;2022-09-25T10:26:36;17.40;99.90
4453;DHT22;2239;48.152;11.584;2022-09-25T10:31:45;18.80;99.90
4453;DHT22;2239;48.152;11.584;2022-09-25T10:36:48;19.20;99.90
4453;DHT22;2239;48.152;11.584;2022-09-25T10:41:49;19.10;99.90
4453;DHT22;2239;48.152;11.584;2022-09-25T10:44:41;19.00;99.90
4453;DHT22;2239;48.152;11.584;2022-09-25T10:50:22;18.90;99.90
4453;DHT22;2239;48.152;11.584;2022-09-25T10:52:52;18.70;99.90
4453;DHT22;2239;48.152;11.584;2022-09-25T11:03:27;18.40;99.90
4453;DHT22;2239;48.152;11.584;2022-09-25T11:06:06;18.40;99.90
4453;DHT22;2239;48.152;11.584;2022-09-25T11:08:36;18.60;99.90
4453;DHT22;2239;48.152;11.584;2022-09-25T11:11:04;18.60;99.90
4453;DHT22;2239;48.152;11.584;2022-09-25T11:13:45;18.50;99.90
4453;DHT22;2239;48.152;11.584;2022-09-25T11:16:12;18.50;99.90
4453;DHT22;2239;48.152;11.584;2022-09-25T11:24:22;18.30;99.90
4453;DHT22;2239;48.152;11.584;2022-09-25T11:27:00;18.30;99.90
4453;DHT22;2239;48.152;11.584;2022-09-25T11:32:37;18.60;99.90
4453;DHT22;2239;48.152;11.584;2022-09-25T11:41:05;19.00;99.90
4453;DHT22;2239;48.152;11.584;2022-09-25T11:54:20;18.60;99.90
4453;DHT22;2239;48.152;11.584;2022-09-25T12:00:28;18.50;99.90
4453;DHT22;2239;48.152;11.584;2022-09-25T12:17:39;18.70;99.90
4453;DHT22;2239;48.152;11.584;2022-09-25T12:20:19;18.80;99.90
4453;DHT22;2239;48.152;11.584;2022-09-25T12:23:21;18.80;99.90
4453;DHT22;2239;48.152;11.584;2022-09-25T12:31:56;18.60;99.90
4453;DHT22;2239;48.152;11.584;2022-09-25T12:39:58;18.40;99.90
4453;DHT22;2239;48.152;11.584;2022-09-25T12:42:49;18.40;99.90
4453;DHT22;2239;48.152;11.584;2022-09-25T12:53:42;18.20;99.90
4453;DHT22;2239;48.152;11.584;2022-09-25T12:56:31;18.00;99.90
4453;DHT22;2239;48.152;11.584;2022-09-25T12:58:59;17.80;99.90
4453;DHT22;2239;48.152;11.584;2022-09-25T13:04:12;17.60;99.90
4453;DHT22;2239;48.152;11.584;2022-09-25T13:06:57;17.50;99.90
4453;DHT22;2239;48.152;11.584;2022-09-25T13:09:42;17.30;99.90
4453;DHT22;2239;48.152;11.584;2022-09-25T13:14:57;17.00;99.90
4453;DHT22;2239;48.152;11.584;2022-09-25T13:17:24;16.80;99.90
4453;DHT22;2239;48.152;11.584;2022-09-25T13:19:50;16.80;99.90
4453;DHT22;2239;48.152;11.584;2022-09-25T13:22:22;16.70;99.90
4453;DHT22;2239;48.152;11.584;2022-09-25T13:24:57;16.60;99.90
4453;DHT22;2239;48.152;11.584;2022-09-25T13:27:39;16.50;99.90
4453;DHT22;2239;48.152;11.584;2022-09-25T13:30:23;16.50;99.90
4453;DHT22;2239;48.152;11.584;2022-09-25T13:32:53;16.40;99.90
4453;DHT22;2239;48.152;11.584;2022-09-25T13:35:22;16.30;99.90
4453;DHT22;2239;48.152;11.584;2022-09-25T13:37:51;16.20;99.90
4453;DHT22;2239;48.152;11.584;2022-09-25T13:40:23;16.10;99.90
4453;DHT22;2239;48.152;11.584;2022-09-25T13:43:19;16.00;99.90
4453;DHT22;2239;48.152;11.584;2022-09-25T13:45:46;15.90;99.90
4453;DHT22;2239;48.152;11.584;2022-09-25T14:04:08;15.20;99.90
4453;DHT22;2239;48.152;11.584;2022-09-25T14:06:35;15.10;99.90
4453;DHT22;2239;48.152;11.584;2022-09-25T14:09:09;15.00;99.90
4453;DHT22;2239;48.152;11.584;2022-09-25T14:11:36;14.90;99.90
4453;DHT22;2239;48.152;11.584;2022-09-25T14:14:15;14.90;99.90
4453;DHT22;2239;48.152;11.584;2022-09-25T14:16:52;14.90;99.90
4453;DHT22;2239;48.152;11.584;2022-09-25T14:19:28;14.90;99.90
4453;DHT22;2239;48.152;11.584;2022-09-25T14:21:55;14.80;99.90
4453;DHT22;2239;48.152;11.584;2022-09-25T14:24:27;14.90;99.90
4453;DHT22;2239;48.152;11.584;2022-09-25T14:26:55;14.90;99.90
4453;DHT22;2239;48.152;11.584;2022-09-25T14:29:24;15.00;99.90
4453;DHT22;2239;48.152;11.584;2022-09-25T14:32:13;15.00;99.90
4453;DHT22;2239;48.152;11.584;2022-09-25T14:46:04;15.50;99.90
4453;DHT22;2239;48.152;11.584;2022-09-25T14:51:13;15.60;99.90
4453;DHT22;2239;48.152;11.584;2022-09-25T14:54:18;15.60;99.90
4453;DHT22;2239;48.152;11.584;2022-09-25T14:56:40;15.60;99.90
4453;DHT22;2239;48.152;11.584;2022-09-25T14:59:10;15.50;99.90
4453;DHT22;2239;48.152;11.584;2022-09-25T15:01:44;15.60;99.90
4453;DHT22;2239;48.152;11.584;2022-09-25T15:04:11;15.60;99.90
4453;DHT22;2239;48.152;11.584;2022-09-25T15:06:38;15.60;99.90
4453;DHT22;2239;48.152;11.584;2022-09-25T15:09:33;15.60;99.90
4453;DHT22;2239;48.152;11.584;2022-09-25T15:12:11;15.70;99.90
4453;DHT22;2239;48.152;11.584;2022-09-25T15:14:40;15.60;99.90
4453;DHT22;2239;48.152;11.584;2022-09-25T15:17:21;15.60;99.90
4453;DHT22;2239;48.152;11.584;2022-09-25T15:19:48;15.50;99.90
4453;DHT22;2239;48.152;11.584;2022-09-25T15:22:22;15.50;99.90
4453;DHT22;2239;48.152;11.584;2022-09-25T15:24:52;15.50;99.90
4453;DHT22;2239;48.152;11.584;2022-09-25T15:27:20;15.50;99.90
4453;DHT22;2239;48.152;11.584;2022-09-25T15:29:47;15.50;99.90
4453;DHT22;2239;48.152;11.584;2022-09-25T15:32:22;15.50;99.90
4453;DHT22;2239;48.152;11.584;2022-09-25T15:34:48;15.50;99.90
4453;DHT22;2239;48.152;11.584;2022-09-25T15:39:41;15.40;99.90
4453;DHT22;2239;48.152;11.584;2022-09-25T15:42:13;15.50;99.90
4453;DHT22;2239;48.152;11.584;2022-09-25T15:44:39;15.30;99.90
4453;DHT22;2239;48.152;11.584;2022-09-25T15:47:05;15.20;99.90
4453;DHT22;2239;48.152;11.584;2022-09-25T15:49:44;15.00;99.90
4453;DHT22;2239;48.152;11.584;2022-09-25T15:52:24;15.00;99.90
4453;DHT22;2239;48.152;11.584;2022-09-25T15:54:59;15.00;99.90
4453;DHT22;2239;48.152;11.584;2022-09-25T15:57:28;15.00;99.90
4453;DHT22;2239;48.152;11.584;2022-09-25T15:59:54;15.00;99.90
4453;DHT22;2239;48.152;11.584;2022-09-25T16:02:45;15.10;99.90
4453;DHT22;2239;48.152;11.584;2022-09-25T16:05:34;15.20;99.90
4453;DHT22;2239;48.152;11.584;2022-09-25T16:13:28;15.30;99.90
4453;DHT22;2239;48.152;11.584;2022-09-25T16:15:54;15.30;99.90
4453;DHT22;2239;48.152;11.584;2022-09-25T16:21:23;15.30;99.90
4453;DHT22;2239;48.152;11.584;2022-09-25T16:24:06;15.30;99.90
4453;DHT22;2239;48.152;11.584;2022-09-25T16:26:43;15.30;99.90
4453;DHT22;2239;48.152;11.584;2022-09-25T16:31:40;15.10;99.90
4453;DHT22;2239;48.152;11.584;2022-09-25T16:34:18;15.10;99.90
4453;DHT22;2239;48.152;11.584;2022-09-25T16:36:50;15.10;99.90
4453;DHT22;2239;48.152;11.584;2022-09-25T16:39:34;15.00;99.90
4453;DHT22;2239;48.152;11.584;2022-09-25T16:42:29;15.00;99.90
4453;DHT22;2239;48.152;11.584;2022-09-25T16:45:07;14.90;99.90
4453;DHT22;2239;48.152;11.584;2022-09-25T16:47:38;14.90;99.90
4453;DHT22;2239;48.152;11.584;2022-09-25T16:50:06;14.90;99.90
4453;DHT22;2239;48.152;11.584;2022-09-25T16:52:33;14.80;99.90
4453;DHT22;2239;48.152;11.584;2022-09-25T16:54:59;14.80;99.90
4453;DHT22;2239;48.152;11.584;2022-09-25T16:57:25;14.80;99.90
4453;DHT22;2239;48.152;11.584;2022-09-25T16:59:56;14.80;99.90
4453;DHT22;2239;48.152;11.584;2022-09-25T17:02:32;14.70;99.90
4453;DHT22;2239;48.152;11.584;2022-09-25T17:05:17;14.70;99.90
4453;DHT22;2239;48.152;11.584;2022-09-25T17:07:48;14.60;99.90
4453;DHT22;2239;48.152;11.584;2022-09-25T17:10:17;14.50;99.90
4453;DHT22;2239;48.152;11.584;2022-09-25T17:12:46;14.40;99.90
4453;DHT22;2239;48.152;11.584;2022-09-25T17:15:27;14.50;99.90
4453;DHT22;2239;48.152;11.584;2022-09-25T17:17:54;14.40;99.90
4453;DHT22;2239;48.152;11.584;2022-09-25T17:20:22;14.30;99.90
4453;DHT22;2239;48.152;11.584;2022-09-25T17:22:49;14.20;99.90
4453;DHT22;2239;48.152;11.584;2022-09-25T17:25:39;14.10;99.90
4453;DHT22;2239;48.152;11.584;2022-09-25T17:28:06;14.10;99.90
4453;DHT22;2239;48.152;11.584;2022-09-25T17:30:32;14.00;99.90
4453;DHT22;2239;48.152;11.584;2022-09-25T17:32:58;13.90;99.90
4453;DHT22;2239;48.152;11.584;2022-09-25T17:38:11;13.90;99.90
4453;DHT22;2239;48.152;11.584;2022-09-25T17:40:38;13.80;99.90
4453;DHT22;2239;48.152;11.584;2022-09-25T17:43:07;13.80;99.90
4453;DHT22;2239;48.152;11.584;2022-09-25T17:45:49;13.80;99.90
4453;DHT22;2239;48.152;11.584;2022-09-25T17:48:19;13.80;99.90
4453;DHT22;2239;48.152;11.584;2022-09-25T17:50:52;13.70;99.90
4453;DHT22;2239;48.152;11.584;2022-09-25T17:53:20;13.70;99.90
4453;DHT22;2239;48.152;11.584;2022-09-25T17:55:47;13.70;99.90
4453;DHT22;2239;48.152;11.584;2022-09-25T17:58:14;13.60;99.90
4453;DHT22;2239;48.152;11.584;2022-09-25T18:00:40;13.70;99.90
4453;DHT22;2239;48.152;11.584;2022-09-25T18:03:06;13.70;99.90
4453;DHT22;2239;48.152;11.584;2022-09-25T18:05:32;13.80;99.90
4453;DHT22;2239;48.152;11.584;2022-09-25T18:07:58;13.90;99.90
4453;DHT22;2239;48.152;11.584;2022-09-25T18:10:24;13.90;99.90
4453;DHT22;2239;48.152;11.584;2022-09-25T18:12:54;14.00;99.90
4453;DHT22;2239;48.152;11.584;2022-09-25T18:15:20;14.10;99.90
4453;DHT22;2239;48.152;11.584;2022-09-25T18:17:46;14.30;99.90
4453;DHT22;2239;48.152;11.584;2022-09-25T18:20:12;14.20;99.90
4453;DHT22;2239;48.152;11.584;2022-09-25T18:22:57;14.10;99.90
4453;DHT22;2239;48.152;11.584;2022-09-25T18:25:23;14.10;99.90
4453;DHT22;2239;48.152;11.584;2022-09-25T18:27:48;14.20;99.90
4453;DHT22;2239;48.152;11.584;2022-09-25T18:30:17;14.00;99.90
4453;DHT22;2239;48.152;11.584;2022-09-25T18:32:44;14.00;99.90
4453;DHT22;2239;48.152;11.584;2022-09-25T18:35:11;13.90;99.90
4453;DHT22;2239;48.152;11.584;2022-09-25T18:37:39;13.90;99.90
4453;DHT22;2239;48.152;11.584;2022-09-25T18:40:05;13.90;99.90
4453;DHT22;2239;48.152;11.584;2022-09-25T18:42:32;13.90;99.90
4453;DHT22;2239;48.152;11.584;2022-09-25T18:44:58;13.90;99.90
4453;DHT22;2239;48.152;11.584;2022-09-25T18:47:25;14.00;99.90
4453;DHT22;2239;48.152;11.584;2022-09-25T18:49:51;14.00;99.90
4453;DHT22;2239;48.152;11.584;2022-09-25T18:52:17;14.00;99.90
4453;DHT22;2239;48.152;11.584;2022-09-25T18:54:42;13.90;99.90
4453;DHT22;2239;48.152;11.584;2022-09-25T18:57:09;13.80;99.90
4453;DHT22;2239;48.152;11.584;2022-09-25T18:59:36;13.80;99.90
4453;DHT22;2239;48.152;11.584;2022-09-25T19:02:03;13.80;99.90
4453;DHT22;2239;48.152;11.584;2022-09-25T19:04:29;13.70;99.90
4453;DHT22;2239;48.152;11.584;2022-09-25T19:06:55;13.70;99.90
4453;DHT22;2239;48.152;11.584;2022-09-25T19:09:22;13.60;99.90
4453;DHT22;2239;48.152;11.584;2022-09-25T19:11:49;13.50;99.90
4453;DHT22;2239;48.152;11.584;2022-09-25T19:14:15;13.60;99.90
4453;DHT22;2239;48.152;11.584;2022-09-25T19:16:42;13.50;99.90
4453;DHT22;2239;48.152;11.584;2022-09-25T19:19:08;13.50;99.90
4453;DHT22;2239;48.152;11.584;2022-09-25T19:21:34;13.50;99.90
4453;DHT22;2239;48.152;11.584;2022-09-25T19:24:00;13.50;99.90